Portada
METAR-TAF:

METAR-TAF

Aeropuertos :

Algeciras, España

Helipuerto de Algeciras

latitud: 36-07-44N, longitud: 05-26-28W, altitud: 30 m

Observación

El informe se hizo hace 38 minutos, a las 07:30 UTC
Viento 4 kt del norte, variando entre oeste y noreste
Temperatura 12°C
Humedad 76%
Presión 1026 hPa
Visibilidad 10 km o más
sin nubes por debajo de 1500 m y sin presencia de cumulonimbus.

METAR: LEAG 280730Z AUTO 35004KT 280V050 CAVOK 12/08 Q1026

Hora: 10:08 (08:08 UTC)


TAF: falta

Observaciones y pronósticos meteorológicos de más de 4000 aeropuertos (mensajes METAR y TAF).

Los puntos amarillos y rojos representan las estaciones disponibles.

Ponga el ratón en el punto deseado para ver el nombre de la estación.

Haga clic para ver las observaciones y los pronósticos meteorológicos.

Para cambiar el mapa : haga clic en los botones verdes con una cruz de color negro para hacer un zoom, en el botón verde con un guión para alejar o en las flechas verdes para mapas adyacentes.


METAR-TAF: